Time;durP1;ratioP1;P1;durP2;ratioP2;P2;SDS_P1;SDS_P2;PMS_P1;PMS_P2;Temp;Humidity;BMP_temperature;BMP_pressure;BME280_temperature;BME280_humidity;BME280_pressure;Samples;Min_cycle;Max_cycle;Signal;HPM_P1;HPM_P2
2022/05/18 00:01:35;;;;;;;;;;;19.10;83.60;;;;;;5047003;28;20477;-71
2022/05/18 00:04:03;;;;;;;;;;;19.10;83.40;;;;;;5058133;28;19959;-71
2022/05/18 00:06:28;;;;;;;;;;;19.00;83.40;;;;;;5048690;28;20683;-70
2022/05/18 00:08:54;;;;;;;;;;;19.00;83.30;;;;;;5049574;28;19917;-71
2022/05/18 00:11:20;;;;;;;;;;;19.00;83.30;;;;;;5046301;28;20488;-71
2022/05/18 00:13:46;;;;;;;;;;;19.00;83.20;;;;;;5056755;28;19924;-71
2022/05/18 00:16:12;;;;;;;;;;;19.00;83.30;;;;;;5066001;28;19966;-71
2022/05/18 00:18:38;;;;;;;;;;;19.00;83.40;;;;;;5062726;28;19917;-71
2022/05/18 00:21:04;;;;;;;;;;;18.90;83.60;;;;;;5059092;28;19924;-71
2022/05/18 00:23:30;;;;;;;;;;;18.90;83.60;;;;;;5046393;28;20689;-71
2022/05/18 00:25:55;;;;;;;;;;;18.90;83.50;;;;;;5066047;28;19958;-71
2022/05/18 00:28:21;;;;;;;;;;;18.90;83.20;;;;;;5064473;28;19924;-71
2022/05/18 00:30:46;;;;;;;;;;;18.90;83.50;;;;;;5050173;28;20007;-71
2022/05/18 00:33:12;;;;;;;;;;;18.90;83.50;;;;;;5046270;28;20654;-71
2022/05/18 00:35:39;;;;;;;;;;;18.80;83.40;;;;;;5060584;28;19912;-71
2022/05/18 00:38:05;;;;;;;;;;;18.80;83.70;;;;;;5060791;28;19944;-71
2022/05/18 00:40:31;;;;;;;;;;;18.80;83.40;;;;;;5058293;28;20756;-70
2022/05/18 00:42:57;;;;;;;;;;;18.80;83.50;;;;;;5066187;28;19916;-70
2022/05/18 00:45:22;;;;;;;;;;;18.70;83.60;;;;;;5062881;28;19985;-71
2022/05/18 00:47:48;;;;;;;;;;;18.70;83.40;;;;;;5065775;28;20553;-70
2022/05/18 00:50:16;;;;;;;;;;;18.70;83.20;;;;;;5062894;28;19908;-71
2022/05/18 00:52:46;;;;;;;;;;;18.70;83.10;;;;;;5058180;28;20648;-71
2022/05/18 00:55:14;;;;;;;;;;;18.70;83.30;;;;;;5058980;28;20269;-71
2022/05/18 00:57:43;;;;;;;;;;;18.70;83.30;;;;;;5065801;28;20007;-71
2022/05/18 01:00:10;;;;;;;;;;;18.70;83.30;;;;;;5058251;28;19912;-71
2022/05/18 01:02:37;;;;;;;;;;;18.60;83.40;;;;;;5048846;28;19913;-70
2022/05/18 01:05:04;;;;;;;;;;;18.60;83.40;;;;;;5045887;28;19913;-71
2022/05/18 01:07:34;;;;;;;;;;;18.60;83.70;;;;;;5065825;28;19939;-70
2022/05/18 01:10:00;;;;;;;;;;;18.60;83.40;;;;;;5050265;28;19919;-71
2022/05/18 01:12:25;;;;;;;;;;;18.60;83.20;;;;;;5060874;28;20622;-71
2022/05/18 01:14:57;;;;;;;;;;;18.50;83.50;;;;;;5047581;28;20377;-70
2022/05/18 01:17:33;;;;;;;;;;;18.50;83.40;;;;;;5022860;28;20013;-71
2022/05/18 01:20:00;;;;;;;;;;;18.50;83.60;;;;;;5047252;28;20489;-71
2022/05/18 01:22:33;;;;;;;;;;;18.50;83.70;;;;;;5062409;28;20647;-71
2022/05/18 01:24:58;;;;;;;;;;;18.50;83.70;;;;;;5045678;28;19917;-72
2022/05/18 01:27:25;;;;;;;;;;;18.40;83.80;;;;;;5053401;28;19920;-71
2022/05/18 01:29:52;;;;;;;;;;;18.50;83.60;;;;;;5058278;28;20661;-70
2022/05/18 01:32:17;;;;;;;;;;;18.40;83.50;;;;;;5055818;28;20686;-71
2022/05/18 01:34:43;;;;;;;;;;;18.40;83.30;;;;;;5065552;28;19912;-70
2022/05/18 01:37:09;;;;;;;;;;;18.40;83.30;;;;;;5062410;28;19913;-71
2022/05/18 01:39:37;;;;;;;;;;;18.40;83.40;;;;;;5046997;28;20258;-71
2022/05/18 01:42:08;;;;;;;;;;;18.40;83.30;;;;;;5050405;28;19920;-72
2022/05/18 01:44:34;;;;;;;;;;;18.40;83.50;;;;;;5065248;28;19917;-71
2022/05/18 01:47:00;;;;;;;;;;;18.30;83.50;;;;;;5062886;28;19916;-71
2022/05/18 01:49:25;;;;;;;;;;;18.30;83.70;;;;;;5065323;28;20670;-71
2022/05/18 01:51:53;;;;;;;;;;;18.30;83.70;;;;;;5061660;28;19938;-70
2022/05/18 01:54:19;;;;;;;;;;;18.30;83.70;;;;;;5055729;28;19924;-71
2022/05/18 01:56:45;;;;;;;;;;;18.30;83.40;;;;;;5049108;28;19917;-71
2022/05/18 01:59:10;;;;;;;;;;;18.30;83.30;;;;;;5044000;28;19917;-71
2022/05/18 02:01:36;;;;;;;;;;;18.20;83.50;;;;;;5024125;28;20035;-70
2022/05/18 02:04:02;;;;;;;;;;;18.20;83.60;;;;;;5038547;28;19931;-71
2022/05/18 02:06:29;;;;;;;;;;;18.20;83.50;;;;;;5033229;28;19966;-71
2022/05/18 02:08:55;;;;;;;;;;;18.20;83.60;;;;;;5033082;28;20020;-71
2022/05/18 02:11:21;;;;;;;;;;;18.20;83.80;;;;;;5044647;28;20632;-70
2022/05/18 02:13:46;;;;;;;;;;;18.20;83.60;;;;;;5042972;28;19916;-71
2022/05/18 02:16:12;;;;;;;;;;;18.10;83.90;;;;;;5043252;28;20003;-71
2022/05/18 02:18:37;;;;;;;;;;;18.20;83.40;;;;;;5045179;28;19921;-71
2022/05/18 02:21:08;;;;;;;;;;;18.10;83.10;;;;;;5040468;28;20537;-71
2022/05/18 02:23:34;;;;;;;;;;;18.10;83.50;;;;;;5032648;28;20008;-71
2022/05/18 02:26:05;;;;;;;;;;;18.10;83.60;;;;;;5035075;28;19987;-71
2022/05/18 02:28:30;;;;;;;;;;;18.10;83.70;;;;;;5038514;28;20337;-71
2022/05/18 02:30:56;;;;;;;;;;;18.10;83.60;;;;;;5046629;28;19926;-71
2022/05/18 02:33:21;;;;;;;;;;;18.10;83.60;;;;;;5043434;28;20346;-71
2022/05/18 02:35:47;;;;;;;;;;;18.00;83.90;;;;;;5065557;28;19912;-71
2022/05/18 02:38:13;;;;;;;;;;;18.00;83.80;;;;;;5062154;28;19943;-71
2022/05/18 02:40:38;;;;;;;;;;;18.00;83.90;;;;;;5064535;28;20392;-71
2022/05/18 02:43:04;;;;;;;;;;;18.00;83.60;;;;;;5068019;28;19912;-71
2022/05/18 02:45:29;;;;;;;;;;;18.00;83.40;;;;;;5064884;28;20618;-71
2022/05/18 02:47:55;;;;;;;;;;;18.00;83.60;;;;;;5067794;28;19912;-71
2022/05/18 02:50:20;;;;;;;;;;;18.00;83.30;;;;;;5065131;28;19955;-71
2022/05/18 02:52:46;;;;;;;;;;;17.90;83.80;;;;;;5059613;28;19923;-71
2022/05/18 02:57:55;;;;;;;;;;;17.90;83.80;;;;;;5067500;28;19958;-71
2022/05/18 03:00:21;;;;;;;;;;;17.90;83.90;;;;;;5063826;28;19952;-71
2022/05/18 03:02:46;;;;;;;;;;;17.90;83.60;;;;;;5067547;28;19962;-71
2022/05/18 03:05:12;;;;;;;;;;;17.90;83.50;;;;;;5064895;28;20369;-71
2022/05/18 03:07:37;;;;;;;;;;;17.90;83.70;;;;;;5047993;28;19978;-71
2022/05/18 03:10:03;;;;;;;;;;;17.90;83.30;;;;;;5049225;28;19921;-71
2022/05/18 03:12:29;;;;;;;;;;;17.80;83.40;;;;;;5063860;28;19927;-71
2022/05/18 03:14:54;;;;;;;;;;;17.80;83.70;;;;;;5060326;28;20008;-71
2022/05/18 03:17:20;;;;;;;;;;;17.80;84.90;;;;;;5027631;28;20671;-71
2022/05/18 03:19:45;;;;;;;;;;;17.80;83.80;;;;;;5046038;28;19912;-71
2022/05/18 03:24:55;;;;;;;;;;;17.80;84.00;;;;;;5067387;28;19970;-71
2022/05/18 03:27:20;;;;;;;;;;;17.80;83.90;;;;;;5064579;28;19920;-71
2022/05/18 03:29:46;;;;;;;;;;;17.80;83.80;;;;;;5060927;28;19975;-71
2022/05/18 03:32:12;;;;;;;;;;;17.80;84.20;;;;;;5060090;28;19932;-71
2022/05/18 03:34:37;;;;;;;;;;;17.70;84.20;;;;;;5067206;28;19919;-71
2022/05/18 03:37:03;;;;;;;;;;;17.70;84.20;;;;;;5064732;28;19916;-71
2022/05/18 03:39:28;;;;;;;;;;;17.70;84.40;;;;;;5050280;28;20373;-71
2022/05/18 03:41:56;;;;;;;;;;;17.70;84.60;;;;;;5053994;28;19917;-71
2022/05/18 03:44:22;;;;;;;;;;;17.70;84.20;;;;;;5067051;28;19916;-71
2022/05/18 03:46:48;;;;;;;;;;;17.70;84.40;;;;;;5063658;28;19923;-71
2022/05/18 03:49:13;;;;;;;;;;;17.70;84.20;;;;;;5067204;28;19909;-71
2022/05/18 03:51:39;;;;;;;;;;;17.60;83.90;;;;;;5049749;28;19955;-71
2022/05/18 03:54:06;;;;;;;;;;;17.60;84.30;;;;;;5056331;28;20432;-71
2022/05/18 03:56:32;;;;;;;;;;;17.60;84.50;;;;;;5064158;28;20411;-71
2022/05/18 03:58:57;;;;;;;;;;;17.60;84.50;;;;;;5067164;28;20027;-71
2022/05/18 04:01:23;;;;;;;;;;;17.60;84.40;;;;;;5047252;28;19952;-71
2022/05/18 04:03:48;;;;;;;;;;;17.60;84.50;;;;;;5062824;28;19916;-71
2022/05/18 04:06:14;;;;;;;;;;;17.60;84.30;;;;;;5066624;28;20490;-71
2022/05/18 04:08:40;;;;;;;;;;;17.60;84.20;;;;;;5053515;28;20381;-71
2022/05/18 04:11:06;;;;;;;;;;;17.50;84.20;;;;;;5047182;28;19994;-73
2022/05/18 04:13:32;;;;;;;;;;;17.60;84.30;;;;;;5058146;28;20351;-73
2022/05/18 04:15:58;;;;;;;;;;;17.50;84.20;;;;;;5066455;28;20433;-73
2022/05/18 04:18:24;;;;;;;;;;;17.50;84.50;;;;;;5059846;28;19947;-73
2022/05/18 04:20:54;;;;;;;;;;;17.50;84.00;;;;;;5058437;28;20007;-73
2022/05/18 04:23:19;;;;;;;;;;;17.50;84.10;;;;;;5062085;28;19931;-73
2022/05/18 04:25:45;;;;;;;;;;;17.50;84.10;;;;;;5045805;28;19916;-72
2022/05/18 04:28:14;;;;;;;;;;;17.50;83.90;;;;;;5048674;28;19921;-73
2022/05/18 04:30:40;;;;;;;;;;;17.50;84.10;;;;;;5052180;28;20059;-73
2022/05/18 04:33:06;;;;;;;;;;;17.50;83.70;;;;;;5046340;28;19932;-72
2022/05/18 04:35:31;;;;;;;;;;;17.50;83.80;;;;;;5065948;28;19913;-73
2022/05/18 04:37:57;;;;;;;;;;;17.60;83.60;;;;;;5039615;28;20540;-73
2022/05/18 04:40:23;;;;;;;;;;;17.50;83.40;;;;;;5047256;28;20024;-73
2022/05/18 04:42:48;;;;;;;;;;;17.50;83.60;;;;;;5045933;28;19913;-73
2022/05/18 04:45:17;;;;;;;;;;;17.50;83.50;;;;;;5060183;28;19924;-73
2022/05/18 04:47:43;;;;;;;;;;;17.50;83.60;;;;;;5026677;28;19913;-73
2022/05/18 04:50:09;;;;;;;;;;;17.50;83.60;;;;;;5052327;28;20351;-73
2022/05/18 04:52:34;;;;;;;;;;;17.50;83.50;;;;;;5051852;28;19924;-73
2022/05/18 04:55:00;;;;;;;;;;;17.50;83.60;;;;;;5055428;28;19917;-73
2022/05/18 04:57:25;;;;;;;;;;;17.50;83.50;;;;;;5065188;28;19966;-73
2022/05/18 04:59:51;;;;;;;;;;;17.50;83.60;;;;;;5054069;28;19956;-73
2022/05/18 05:02:17;;;;;;;;;;;17.50;83.20;;;;;;5045169;28;20392;-73
2022/05/18 05:04:43;;;;;;;;;;;17.50;83.40;;;;;;5049115;28;20409;-73
2022/05/18 05:07:08;;;;;;;;;;;17.50;83.60;;;;;;5065201;28;19908;-73
2022/05/18 05:09:34;;;;;;;;;;;17.50;83.50;;;;;;5048658;28;19917;-73
2022/05/18 05:12:00;;;;;;;;;;;17.50;83.40;;;;;;5061858;28;20357;-73
2022/05/18 05:14:26;;;;;;;;;;;17.50;83.50;;;;;;5038834;28;19913;-73
2022/05/18 05:16:52;;;;;;;;;;;17.60;83.20;;;;;;5064667;28;19916;-73
2022/05/18 05:19:17;;;;;;;;;;;17.50;83.40;;;;;;5054519;28;20362;-73
2022/05/18 05:21:44;;;;;;;;;;;17.50;83.70;;;;;;5062666;28;19974;-73
2022/05/18 05:24:13;;;;;;;;;;;17.50;83.20;;;;;;5066073;28;20489;-73
2022/05/18 05:26:40;;;;;;;;;;;17.50;83.20;;;;;;5062493;28;19912;-73
2022/05/18 05:29:06;;;;;;;;;;;17.60;83.30;;;;;;5064696;28;19923;-73
2022/05/18 05:31:31;;;;;;;;;;;17.60;83.30;;;;;;5055617;28;19920;-73
2022/05/18 05:33:57;;;;;;;;;;;17.60;83.10;;;;;;5065351;28;20647;-73
2022/05/18 05:36:23;;;;;;;;;;;17.60;83.30;;;;;;5062395;28;20284;-73
2022/05/18 05:38:49;;;;;;;;;;;17.60;83.30;;;;;;5053849;28;19916;-73
2022/05/18 05:41:15;;;;;;;;;;;17.60;83.10;;;;;;5048405;28;20327;-73
2022/05/18 05:43:41;;;;;;;;;;;17.60;83.30;;;;;;5049782;28;19917;-73
2022/05/18 05:46:10;;;;;;;;;;;17.60;83.10;;;;;;5046921;28;20013;-73
2022/05/18 05:48:36;;;;;;;;;;;17.70;83.40;;;;;;5063569;28;19916;-72
2022/05/18 05:51:01;;;;;;;;;;;17.70;83.20;;;;;;5044333;28;19912;-73
2022/05/18 05:53:27;;;;;;;;;;;17.70;83.30;;;;;;5054565;28;20732;-73
2022/05/18 05:55:53;;;;;;;;;;;17.70;83.20;;;;;;5064784;28;20361;-73
2022/05/18 05:58:20;;;;;;;;;;;17.60;83.10;;;;;;5061998;28;19912;-73
2022/05/18 06:00:46;;;;;;;;;;;17.70;83.00;;;;;;5050145;28;19962;-73
2022/05/18 06:03:12;;;;;;;;;;;17.70;83.10;;;;;;5059036;28;19917;-73
2022/05/18 06:05:38;;;;;;;;;;;17.70;83.10;;;;;;5064524;28;19985;-73
2022/05/18 06:08:04;;;;;;;;;;;17.80;83.00;;;;;;5056728;28;20593;-73
2022/05/18 06:10:29;;;;;;;;;;;17.80;83.30;;;;;;5045916;28;19920;-73
2022/05/18 06:12:54;;;;;;;;;;;17.80;83.10;;;;;;5057014;28;20408;-73
2022/05/18 06:15:20;;;;;;;;;;;17.80;82.90;;;;;;5068705;28;19917;-73
2022/05/18 06:17:45;;;;;;;;;;;17.80;82.90;;;;;;5066148;28;19913;-73
2022/05/18 06:20:11;;;;;;;;;;;17.80;82.80;;;;;;5057779;28;19956;-73
2022/05/18 06:22:37;;;;;;;;;;;17.90;83.00;;;;;;5065445;28;20412;-72
2022/05/18 06:25:03;;;;;;;;;;;17.90;82.90;;;;;;5068756;28;19952;-73
2022/05/18 06:27:28;;;;;;;;;;;17.90;82.70;;;;;;5056814;28;19916;-73
2022/05/18 06:29:54;;;;;;;;;;;17.90;82.80;;;;;;5060813;28;19963;-73
2022/05/18 06:32:19;;;;;;;;;;;17.90;83.00;;;;;;5048324;28;19971;-73
2022/05/18 06:34:45;;;;;;;;;;;18.00;82.90;;;;;;5065260;28;20743;-73
2022/05/18 06:37:11;;;;;;;;;;;18.00;83.10;;;;;;5068074;28;20002;-73
2022/05/18 06:39:36;;;;;;;;;;;18.00;82.80;;;;;;5051833;28;19974;-73
2022/05/18 06:42:02;;;;;;;;;;;18.10;83.20;;;;;;5048261;28;19924;-73
2022/05/18 06:44:27;;;;;;;;;;;18.10;83.10;;;;;;5059566;28;19958;-74
2022/05/18 06:46:57;;;;;;;;;;;18.10;83.10;;;;;;5067864;28;19912;-73
2022/05/18 06:49:22;;;;;;;;;;;18.10;82.90;;;;;;5063637;28;19990;-72
2022/05/18 06:51:48;;;;;;;;;;;18.10;83.00;;;;;;5068115;28;19917;-73
2022/05/18 06:54:14;;;;;;;;;;;18.20;83.20;;;;;;5045196;28;20441;-73
2022/05/18 06:56:41;;;;;;;;;;;18.20;83.20;;;;;;5067846;28;19916;-73
2022/05/18 06:59:07;;;;;;;;;;;18.20;82.80;;;;;;5064356;28;19921;-72
2022/05/18 07:01:33;;;;;;;;;;;18.30;83.30;;;;;;5032084;28;19951;-69
2022/05/18 07:03:58;;;;;;;;;;;18.30;83.10;;;;;;4982756;28;19924;-71
2022/05/18 07:06:24;;;;;;;;;;;18.40;83.30;;;;;;5019349;28;19966;-72
2022/05/18 07:08:55;;;;;;;;;;;18.40;82.70;;;;;;5024506;28;19916;-71
2022/05/18 07:11:22;;;;;;;;;;;18.40;82.60;;;;;;5021854;28;19925;-71
2022/05/18 07:13:51;;;;;;;;;;;18.40;82.50;;;;;;5027239;28;20374;-71
2022/05/18 07:16:23;;;;;;;;;;;18.40;82.70;;;;;;5023502;28;19913;-72
2022/05/18 07:18:49;;;;;;;;;;;18.50;82.70;;;;;;5021726;28;19925;-71
2022/05/18 07:21:15;;;;;;;;;;;18.50;82.50;;;;;;5023216;28;19913;-71
2022/05/18 07:23:40;;;;;;;;;;;18.50;82.40;;;;;;5023801;28;19924;-71
2022/05/18 07:26:06;;;;;;;;;;;18.60;82.30;;;;;;5022773;28;19917;-72
2022/05/18 07:28:31;;;;;;;;;;;18.60;82.30;;;;;;5025244;28;20027;-72
2022/05/18 07:30:57;;;;;;;;;;;18.60;82.20;;;;;;5020595;28;19990;-72
2022/05/18 07:33:24;;;;;;;;;;;18.70;82.50;;;;;;5024773;28;19921;-72
2022/05/18 07:35:51;;;;;;;;;;;18.70;82.20;;;;;;5023433;28;19917;-72
2022/05/18 07:38:20;;;;;;;;;;;18.70;82.20;;;;;;5023493;28;20391;-72
2022/05/18 07:40:48;;;;;;;;;;;18.80;82.50;;;;;;5019426;28;19924;-72
2022/05/18 07:43:13;;;;;;;;;;;18.80;82.20;;;;;;5023147;28;20275;-72
2022/05/18 07:45:39;;;;;;;;;;;18.90;81.90;;;;;;5027367;28;19916;-72
2022/05/18 07:48:04;;;;;;;;;;;18.90;81.80;;;;;;5017115;28;19963;-71
2022/05/18 07:50:30;;;;;;;;;;;18.90;81.60;;;;;;5003192;28;19995;-72
2022/05/18 07:52:58;;;;;;;;;;;19.00;82.00;;;;;;4998748;28;20103;-73
2022/05/18 07:55:24;;;;;;;;;;;19.00;82.00;;;;;;5008053;28;19986;-72
2022/05/18 07:57:50;;;;;;;;;;;19.00;81.70;;;;;;5017995;28;19913;-72
2022/05/18 08:00:17;;;;;;;;;;;19.10;81.90;;;;;;5027225;28;19912;-72
2022/05/18 08:02:43;;;;;;;;;;;19.10;81.80;;;;;;5022938;28;19979;-71
2022/05/18 08:05:08;;;;;;;;;;;19.20;81.90;;;;;;5021111;28;19917;-71
2022/05/18 08:07:34;;;;;;;;;;;19.20;82.00;;;;;;5019343;28;19928;-72
2022/05/18 08:15:29;;;;;;;;;;;19.30;81.40;;;;;;5008765;28;20556;-72
2022/05/18 08:17:54;;;;;;;;;;;19.40;81.30;;;;;;4982562;28;19928;-72
2022/05/18 08:20:20;;;;;;;;;;;19.40;81.50;;;;;;4986769;28;19921;-72
2022/05/18 08:22:46;;;;;;;;;;;19.40;81.50;;;;;;5001471;28;19921;-71
2022/05/18 08:25:12;;;;;;;;;;;19.50;81.00;;;;;;4933875;28;19990;-71
2022/05/18 08:27:42;;;;;;;;;;;19.50;81.00;;;;;;4959941;28;19967;-71
2022/05/18 08:30:08;;;;;;;;;;;19.60;81.30;;;;;;4991128;28;20050;-71
2022/05/18 08:32:34;;;;;;;;;;;19.60;81.20;;;;;;5007400;28;19925;-71
2022/05/18 08:34:59;;;;;;;;;;;19.60;80.60;;;;;;4983585;28;19956;-71
2022/05/18 08:37:25;;;;;;;;;;;19.60;80.70;;;;;;5005677;28;20003;-71
2022/05/18 08:39:51;;;;;;;;;;;19.70;80.60;;;;;;4960007;28;20051;-71
2022/05/18 08:42:18;;;;;;;;;;;19.70;80.70;;;;;;5004003;28;19917;-71
2022/05/18 08:44:43;;;;;;;;;;;19.80;80.40;;;;;;5006752;28;20424;-71
2022/05/18 08:47:29;;;;;;;;;;;19.80;80.10;;;;;;5013083;28;19975;-71
2022/05/18 08:50:00;;;;;;;;;;;19.90;80.00;;;;;;5003023;28;20705;-72
2022/05/18 08:52:26;;;;;;;;;;;20.00;80.00;;;;;;4985701;28;19928;-72
2022/05/18 08:55:07;;;;;;;;;;;19.90;79.90;;;;;;5013029;28;19921;-71
2022/05/18 08:57:42;;;;;;;;;;;20.00;79.90;;;;;;4997104;28;19921;-72
2022/05/18 09:00:18;;;;;;;;;;;20.00;79.80;;;;;;5004335;28;19947;-71
2022/05/18 09:02:44;;;;;;;;;;;20.10;79.90;;;;;;5005275;28;19956;-71
2022/05/18 09:05:16;;;;;;;;;;;20.10;79.70;;;;;;4993143;28;19971;-71
2022/05/18 09:07:56;;;;;;;;;;;20.20;79.80;;;;;;5006399;28;19923;-71
2022/05/18 09:10:32;;;;;;;;;;;20.20;79.50;;;;;;5016183;28;20360;-71
2022/05/18 09:12:57;;;;;;;;;;;20.30;79.40;;;;;;5007042;28;19917;-71
2022/05/18 09:15:34;;;;;;;;;;;20.30;79.40;;;;;;4979701;28;20871;-71
2022/05/18 09:18:20;;;;;;;;;;;20.40;79.10;;;;;;4996430;28;19917;-71
2022/05/18 09:20:48;;;;;;;;;;;20.40;78.90;;;;;;4981057;28;19913;-72
2022/05/18 09:23:33;;;;;;;;;;;20.50;79.10;;;;;;5021087;28;19919;-72
2022/05/18 09:26:08;;;;;;;;;;;20.50;79.00;;;;;;5010232;28;20955;-71
2022/05/18 09:28:58;;;;;;;;;;;20.60;78.90;;;;;;5025028;28;19921;-71
2022/05/18 09:31:42;;;;;;;;;;;20.70;78.50;;;;;;5015882;28;19925;-70
2022/05/18 09:34:10;;;;;;;;;;;20.70;78.30;;;;;;5008253;28;19947;-71
2022/05/18 09:36:51;;;;;;;;;;;20.80;78.10;;;;;;5019633;28;19917;-71
2022/05/18 09:39:19;;;;;;;;;;;20.80;78.50;;;;;;5021375;28;19964;-71
2022/05/18 09:41:49;;;;;;;;;;;20.90;78.20;;;;;;5017299;28;19923;-71
2022/05/18 09:44:39;;;;;;;;;;;21.00;78.20;;;;;;5018849;28;19956;-71
2022/05/18 09:47:04;;;;;;;;;;;21.00;77.60;;;;;;5022027;28;19975;-71
2022/05/18 09:49:46;;;;;;;;;;;21.10;77.80;;;;;;5015249;28;19917;-71
2022/05/18 09:52:12;;;;;;;;;;;21.20;77.60;;;;;;5011006;28;19931;-71
2022/05/18 09:54:38;;;;;;;;;;;21.20;77.60;;;;;;5013322;28;19921;-72
2022/05/18 09:57:12;;;;;;;;;;;21.30;77.40;;;;;;5006900;28;19920;-71
2022/05/18 09:59:42;;;;;;;;;;;21.40;77.20;;;;;;5007819;28;19998;-71
2022/05/18 10:07:48;;;;;;;;;;;21.60;77.00;;;;;;4990008;28;19928;-71
2022/05/18 10:10:38;;;;;;;;;;;21.70;76.90;;;;;;5018837;28;19913;-71
2022/05/18 10:13:07;;;;;;;;;;;21.70;76.80;;;;;;5006282;28;20448;-71
2022/05/18 10:15:38;;;;;;;;;;;21.80;77.00;;;;;;5019002;28;19917;-71
2022/05/18 10:18:09;;;;;;;;;;;21.90;76.60;;;;;;5021673;28;19921;-71
2022/05/18 10:20:36;;;;;;;;;;;21.90;76.90;;;;;;5019412;28;19913;-71
2022/05/18 10:23:02;;;;;;;;;;;22.10;76.60;;;;;;5025487;28;20378;-71
2022/05/18 10:25:34;;;;;;;;;;;22.10;77.00;;;;;;5019847;28;19917;-71
2022/05/18 10:28:03;;;;;;;;;;;22.20;76.50;;;;;;5008101;28;20428;-72
2022/05/18 10:30:31;;;;;;;;;;;22.30;76.60;;;;;;4999471;28;19917;-71
2022/05/18 10:32:57;;;;;;;;;;;22.30;76.60;;;;;;5003295;28;20423;-71
2022/05/18 10:35:33;;;;;;;;;;;22.40;77.00;;;;;;4987460;28;19913;-71
2022/05/18 10:38:00;;;;;;;;;;;22.60;77.10;;;;;;5002022;28;19921;-71
2022/05/18 10:40:26;;;;;;;;;;;22.60;76.80;;;;;;5001417;28;19946;-71
2022/05/18 10:42:54;;;;;;;;;;;22.70;76.70;;;;;;5002177;28;20759;-71
2022/05/18 10:45:25;;;;;;;;;;;22.80;76.10;;;;;;4999228;28;19996;-71
2022/05/18 10:47:51;;;;;;;;;;;22.90;76.90;;;;;;4983011;28;19928;-72
2022/05/18 10:50:28;;;;;;;;;;;23.10;77.50;;;;;;4983429;28;20641;-71
2022/05/18 10:53:01;;;;;;;;;;;23.10;77.30;;;;;;5003805;28;19965;-71
2022/05/18 10:55:30;;;;;;;;;;;23.20;77.10;;;;;;5001992;28;20021;-71
2022/05/18 10:58:05;;;;;;;;;;;23.40;76.90;;;;;;4996013;28;19921;-71
2022/05/18 11:00:46;;;;;;;;;;;23.40;77.00;;;;;;4968442;28;19917;-71
2022/05/18 11:03:26;;;;;;;;;;;23.60;77.40;;;;;;5007037;28;20007;-71
2022/05/18 11:06:04;;;;;;;;;;;23.70;77.50;;;;;;5005306;28;19925;-71
2022/05/18 11:08:31;;;;;;;;;;;23.80;77.80;;;;;;5004246;28;19921;-71
2022/05/18 11:11:08;;;;;;;;;;;23.90;78.00;;;;;;5004265;28;20032;-71
2022/05/18 11:13:33;;;;;;;;;;;24.00;77.40;;;;;;5016869;28;19979;-71
2022/05/18 11:16:04;;;;;;;;;;;24.10;77.30;;;;;;5006807;28;19917;-72
2022/05/18 11:18:32;;;;;;;;;;;24.20;77.40;;;;;;5003736;28;19918;-71
2022/05/18 11:21:15;;;;;;;;;;;24.30;77.30;;;;;;5007473;28;20342;-71
2022/05/18 11:23:56;;;;;;;;;;;24.50;77.40;;;;;;5002241;28;20021;-71
2022/05/18 11:27:00;;;;;;;;;;;24.60;77.60;;;;;;5005807;28;19925;-71
2022/05/18 11:29:34;;;;;;;;;;;24.70;77.70;;;;;;4956967;28;19952;-71
2022/05/18 11:31:59;;;;;;;;;;;24.80;77.20;;;;;;4960336;28;19930;-71
2022/05/18 11:34:39;;;;;;;;;;;24.90;77.50;;;;;;4989604;28;19928;-71
2022/05/18 11:37:05;;;;;;;;;;;25.00;77.00;;;;;;5023050;28;19913;-70
2022/05/18 11:39:41;;;;;;;;;;;25.10;76.50;;;;;;5025835;28;19963;-71
2022/05/18 11:42:22;;;;;;;;;;;25.20;77.40;;;;;;5023446;28;20267;-71
2022/05/18 11:45:00;;;;;;;;;;;25.30;76.40;;;;;;5023346;28;19992;-70
2022/05/18 11:47:34;;;;;;;;;;;25.40;77.00;;;;;;4999201;28;20541;-71
2022/05/18 11:50:18;;;;;;;;;;;25.50;77.60;;;;;;5000984;28;20324;-70
2022/05/18 11:53:13;;;;;;;;;;;25.50;77.20;;;;;;5016704;28;20004;-70
2022/05/18 11:55:47;;;;;;;;;;;25.60;76.30;;;;;;4970612;28;19929;-71
2022/05/18 11:58:26;;;;;;;;;;;25.60;76.10;;;;;;5025804;28;20406;-71
2022/05/18 12:00:56;;;;;;;;;;;25.70;76.10;;;;;;5042529;28;19921;-71
2022/05/18 12:03:27;;;;;;;;;;;25.80;75.90;;;;;;5066964;28;19997;-71
2022/05/18 12:05:53;;;;;;;;;;;25.90;76.00;;;;;;5063689;28;19923;-71
2022/05/18 12:08:26;;;;;;;;;;;26.00;75.90;;;;;;5045776;28;19917;-70
2022/05/18 12:10:58;;;;;;;;;;;26.10;76.10;;;;;;5038526;28;20717;-70
2022/05/18 12:13:29;;;;;;;;;;;26.20;76.30;;;;;;5039692;28;19960;-71
2022/05/18 12:16:04;;;;;;;;;;;26.30;76.40;;;;;;5037052;28;19921;-71
2022/05/18 12:18:40;;;;;;;;;;;26.30;76.70;;;;;;5037590;28;19966;-71
2022/05/18 12:21:09;;;;;;;;;;;26.40;76.60;;;;;;5036621;28;20012;-71
2022/05/18 12:23:36;;;;;;;;;;;26.40;76.40;;;;;;5065837;28;20420;-71
2022/05/18 12:26:02;;;;;;;;;;;26.50;76.50;;;;;;5064184;28;20436;-71
2022/05/18 12:28:28;;;;;;;;;;;26.60;76.30;;;;;;5048686;28;19966;-71
2022/05/18 12:30:54;;;;;;;;;;;26.60;76.40;;;;;;5035109;28;19920;-71
2022/05/18 12:33:20;;;;;;;;;;;26.70;76.40;;;;;;5036930;28;20384;-71
2022/05/18 12:35:46;;;;;;;;;;;26.70;76.20;;;;;;5045541;28;19923;-70
2022/05/18 12:38:20;;;;;;;;;;;26.80;76.50;;;;;;5037754;28;19920;-71
2022/05/18 12:40:51;;;;;;;;;;;26.80;75.70;;;;;;5006645;28;19914;-70
2022/05/18 12:43:22;;;;;;;;;;;26.90;76.20;;;;;;5030670;28;19916;-71
2022/05/18 12:45:48;;;;;;;;;;;27.00;76.10;;;;;;5043791;28;19959;-71
2022/05/18 12:48:19;;;;;;;;;;;27.00;76.40;;;;;;5042513;28;19952;-71
2022/05/18 12:50:48;;;;;;;;;;;27.10;76.30;;;;;;5045049;28;20007;-71
2022/05/18 12:53:23;;;;;;;;;;;27.10;76.30;;;;;;5040628;28;19928;-71
2022/05/18 12:55:56;;;;;;;;;;;27.20;76.30;;;;;;5045095;28;19947;-71
2022/05/18 12:58:31;;;;;;;;;;;27.30;75.60;;;;;;5038117;28;19916;-71
2022/05/18 13:01:07;;;;;;;;;;;27.30;75.10;;;;;;5023965;28;20000;-71
2022/05/18 13:03:44;;;;;;;;;;;27.40;75.70;;;;;;5031903;28;19995;-70
2022/05/18 13:06:14;;;;;;;;;;;27.50;75.40;;;;;;5044415;28;19913;-71
2022/05/18 13:08:41;;;;;;;;;;;27.50;75.60;;;;;;5037809;28;19924;-71
2022/05/18 13:11:10;;;;;;;;;;;27.50;76.00;;;;;;4992920;28;19917;-70
2022/05/18 13:13:55;;;;;;;;;;;27.60;76.40;;;;;;5021783;28;20440;-71
2022/05/18 13:16:36;;;;;;;;;;;27.60;76.30;;;;;;5010159;28;19920;-71
2022/05/18 13:19:03;;;;;;;;;;;27.70;76.50;;;;;;5024696;28;19917;-71
2022/05/18 13:21:28;;;;;;;;;;;27.80;75.90;;;;;;5043399;28;20296;-71
2022/05/18 13:24:11;;;;;;;;;;;27.80;76.40;;;;;;5042184;28;19921;-71
2022/05/18 13:26:45;;;;;;;;;;;27.80;76.00;;;;;;5044558;28;19959;-71
2022/05/18 13:29:27;;;;;;;;;;;27.90;76.30;;;;;;5032787;28;19924;-71
2022/05/18 13:31:54;;;;;;;;;;;27.90;76.00;;;;;;5024553;28;19921;-71
2022/05/18 13:34:24;;;;;;;;;;;28.00;76.10;;;;;;5027074;28;19993;-71
2022/05/18 13:36:52;;;;;;;;;;;28.10;75.20;;;;;;5044556;28;19912;-71
2022/05/18 13:39:38;;;;;;;;;;;28.20;75.50;;;;;;5030116;28;19923;-71
2022/05/18 13:42:11;;;;;;;;;;;28.20;74.00;;;;;;5024943;28;19917;-71
2022/05/18 13:44:37;;;;;;;;;;;28.30;74.90;;;;;;5022215;28;19923;-71
2022/05/18 13:47:03;;;;;;;;;;;28.40;74.20;;;;;;5043181;28;20615;-71
2022/05/18 13:49:31;;;;;;;;;;;28.50;74.70;;;;;;5041688;28;19932;-71
2022/05/18 13:52:06;;;;;;;;;;;28.40;74.20;;;;;;5043114;28;19999;-71
2022/05/18 13:54:35;;;;;;;;;;;28.40;74.20;;;;;;5034218;28;19919;-71
2022/05/18 13:57:03;;;;;;;;;;;28.30;74.10;;;;;;5044382;28;19996;-71
2022/05/18 13:59:30;;;;;;;;;;;28.50;74.30;;;;;;5039635;28;20008;-71
2022/05/18 14:01:57;;;;;;;;;;;28.50;74.60;;;;;;5040905;28;19923;-71
2022/05/18 14:04:26;;;;;;;;;;;28.60;74.00;;;;;;5043857;28;19924;-71
2022/05/18 14:06:54;;;;;;;;;;;28.70;73.30;;;;;;5041407;28;19921;-71
2022/05/18 14:09:21;;;;;;;;;;;28.80;72.80;;;;;;5028173;28;19909;-71
2022/05/18 14:11:47;;;;;;;;;;;28.90;71.30;;;;;;5026840;28;19917;-71
2022/05/18 14:14:13;;;;;;;;;;;29.00;71.20;;;;;;5035937;28;19920;-71
2022/05/18 14:16:45;;;;;;;;;;;29.00;70.40;;;;;;5022995;28;20294;-71
2022/05/18 14:19:14;;;;;;;;;;;29.20;68.80;;;;;;5024146;28;19924;-71
2022/05/18 14:21:42;;;;;;;;;;;29.20;68.20;;;;;;5041145;28;20305;-71
2022/05/18 14:24:12;;;;;;;;;;;29.40;65.90;;;;;;5044110;28;19909;-71
2022/05/18 14:26:40;;;;;;;;;;;29.50;65.80;;;;;;5041136;28;19917;-71
2022/05/18 14:29:07;;;;;;;;;;;29.60;65.90;;;;;;5044152;28;19921;-71
2022/05/18 14:31:37;;;;;;;;;;;29.70;65.00;;;;;;5042242;28;19923;-70
2022/05/18 14:34:06;;;;;;;;;;;29.80;64.70;;;;;;5047731;28;20644;-71
2022/05/18 14:36:35;;;;;;;;;;;29.90;64.30;;;;;;5020723;28;19920;-71
2022/05/18 14:39:20;;;;;;;;;;;30.10;63.80;;;;;;5020254;28;19917;-70
2022/05/18 14:41:49;;;;;;;;;;;30.10;64.60;;;;;;5024592;28;19913;-71